sensor_id;sensor_type;location;lat;lon;timestamp;pressure;altitude;pressure_sealevel;temperature;humidity
56604;BME280;42486;47.478;19.036;2022-12-07T00:02:33;100200.09;;;1.04;100.00
56604;BME280;42486;47.478;19.036;2022-12-07T00:05:37;100202.31;;;0.90;100.00
56604;BME280;42486;47.478;19.036;2022-12-07T00:08:42;100205.75;;;0.91;100.00
56604;BME280;42486;47.478;19.036;2022-12-07T00:11:47;100202.00;;;0.74;100.00
56604;BME280;42486;47.478;19.036;2022-12-07T00:14:53;100197.19;;;0.67;100.00
56604;BME280;42486;47.478;19.036;2022-12-07T00:17:58;100192.03;;;0.67;100.00
56604;BME280;42486;47.478;19.036;2022-12-07T00:21:05;100185.56;;;0.55;100.00
56604;BME280;42486;47.478;19.036;2022-12-07T00:24:09;100185.25;;;0.39;100.00
56604;BME280;42486;47.478;19.036;2022-12-07T00:27:13;100182.91;;;0.33;100.00
56604;BME280;42486;47.478;19.036;2022-12-07T00:30:16;100185.53;;;0.31;100.00
56604;BME280;42486;47.478;19.036;2022-12-07T00:33:19;100182.97;;;0.31;100.00
56604;BME280;42486;47.478;19.036;2022-12-07T00:36:24;100175.44;;;0.27;100.00
56604;BME280;42486;47.478;19.036;2022-12-07T00:39:29;100169.66;;;0.20;100.00
56604;BME280;42486;47.478;19.036;2022-12-07T00:42:33;100161.91;;;0.21;100.00
56604;BME280;42486;47.478;19.036;2022-12-07T00:45:41;100167.44;;;0.09;100.00
56604;BME280;42486;47.478;19.036;2022-12-07T00:48:45;100165.81;;;0.07;100.00
56604;BME280;42486;47.478;19.036;2022-12-07T00:51:49;100169.53;;;-0.02;100.00
56604;BME280;42486;47.478;19.036;2022-12-07T00:54:56;100173.88;;;-0.04;100.00
56604;BME280;42486;47.478;19.036;2022-12-07T00:57:59;100170.56;;;-0.08;100.00
56604;BME280;42486;47.478;19.036;2022-12-07T01:01:04;100170.66;;;-0.11;100.00
56604;BME280;42486;47.478;19.036;2022-12-07T01:04:10;100164.84;;;-0.16;100.00
56604;BME280;42486;47.478;19.036;2022-12-07T01:07:19;100165.50;;;-0.11;100.00
56604;BME280;42486;47.478;19.036;2022-12-07T01:10:24;100162.81;;;-0.06;100.00
56604;BME280;42486;47.478;19.036;2022-12-07T01:13:31;100170.66;;;-0.11;100.00
56604;BME280;42486;47.478;19.036;2022-12-07T01:16:36;100160.38;;;-0.11;100.00
56604;BME280;42486;47.478;19.036;2022-12-07T01:19:41;100167.22;;;-0.10;100.00
56604;BME280;42486;47.478;19.036;2022-12-07T01:22:45;100167.41;;;-0.16;100.00
56604;BME280;42486;47.478;19.036;2022-12-07T01:25:58;100165.00;;;-0.20;100.00
56604;BME280;42486;47.478;19.036;2022-12-07T01:29:02;100167.59;;;-0.22;100.00
56604;BME280;42486;47.478;19.036;2022-12-07T01:32:10;100164.41;;;-0.29;100.00
56604;BME280;42486;47.478;19.036;2022-12-07T01:35:13;100159.97;;;-0.24;100.00
56604;BME280;42486;47.478;19.036;2022-12-07T01:38:21;100150.72;;;-0.29;100.00
56604;BME280;42486;47.478;19.036;2022-12-07T01:41:26;100156.59;;;-0.26;100.00
56604;BME280;42486;47.478;19.036;2022-12-07T01:44:30;100155.25;;;-0.11;100.00
56604;BME280;42486;47.478;19.036;2022-12-07T01:47:41;100153.69;;;-0.15;100.00
56604;BME280;42486;47.478;19.036;2022-12-07T01:50:46;100152.63;;;-0.09;100.00
56604;BME280;42486;47.478;19.036;2022-12-07T01:53:51;100155.16;;;-0.08;100.00
56604;BME280;42486;47.478;19.036;2022-12-07T01:56:57;100151.31;;;0.06;100.00
56604;BME280;42486;47.478;19.036;2022-12-07T02:00:03;100154.12;;;0.23;100.00
56604;BME280;42486;47.478;19.036;2022-12-07T02:03:11;100148.97;;;0.23;100.00
56604;BME280;42486;47.478;19.036;2022-12-07T02:06:20;100142.75;;;0.30;100.00
56604;BME280;42486;47.478;19.036;2022-12-07T02:09:26;100138.91;;;0.42;100.00
56604;BME280;42486;47.478;19.036;2022-12-07T02:12:29;100140.91;;;0.59;100.00
56604;BME280;42486;47.478;19.036;2022-12-07T02:22:01;100135.84;;;0.79;100.00
56604;BME280;42486;47.478;19.036;2022-12-07T02:31:50;100149.37;;;0.84;100.00
56604;BME280;42486;47.478;19.036;2022-12-07T02:35:00;100145.28;;;0.79;100.00
56604;BME280;42486;47.478;19.036;2022-12-07T02:44:23;100140.03;;;0.82;100.00
56604;BME280;42486;47.478;19.036;2022-12-07T02:47:28;100144.91;;;0.90;100.00
56604;BME280;42486;47.478;19.036;2022-12-07T02:50:32;100141.25;;;0.95;100.00
56604;BME280;42486;47.478;19.036;2022-12-07T02:53:37;100136.31;;;0.91;100.00
56604;BME280;42486;47.478;19.036;2022-12-07T03:02:54;100121.13;;;1.06;100.00
56604;BME280;42486;47.478;19.036;2022-12-07T03:06:04;100128.19;;;1.23;100.00
56604;BME280;42486;47.478;19.036;2022-12-07T03:09:20;100118.16;;;1.39;100.00
56604;BME280;42486;47.478;19.036;2022-12-07T03:12:34;100118.72;;;1.46;100.00
56604;BME280;42486;47.478;19.036;2022-12-07T03:15:46;100119.47;;;1.49;100.00
56604;BME280;42486;47.478;19.036;2022-12-07T03:18:54;100120.81;;;1.58;100.00
56604;BME280;42486;47.478;19.036;2022-12-07T03:22:00;100121.03;;;1.74;100.00
56604;BME280;42486;47.478;19.036;2022-12-07T03:25:08;100117.53;;;1.75;100.00
56604;BME280;42486;47.478;19.036;2022-12-07T03:28:18;100119.69;;;1.65;100.00
56604;BME280;42486;47.478;19.036;2022-12-07T03:31:29;100109.81;;;1.75;100.00
56604;BME280;42486;47.478;19.036;2022-12-07T03:34:36;100111.37;;;1.79;100.00
56604;BME280;42486;47.478;19.036;2022-12-07T03:37:42;100115.75;;;1.77;100.00
56604;BME280;42486;47.478;19.036;2022-12-07T03:40:52;100114.00;;;1.77;100.00
56604;BME280;42486;47.478;19.036;2022-12-07T03:44:04;100120.25;;;1.72;100.00
56604;BME280;42486;47.478;19.036;2022-12-07T03:47:13;100118.06;;;1.83;100.00
56604;BME280;42486;47.478;19.036;2022-12-07T03:50:23;100116.97;;;1.89;100.00
56604;BME280;42486;47.478;19.036;2022-12-07T03:54:14;100117.69;;;1.92;100.00
56604;BME280;42486;47.478;19.036;2022-12-07T03:56:50;100121.41;;;1.85;100.00
56604;BME280;42486;47.478;19.036;2022-12-07T03:59:55;100125.78;;;1.83;100.00
56604;BME280;42486;47.478;19.036;2022-12-07T04:03:00;100132.63;;;1.84;100.00
56604;BME280;42486;47.478;19.036;2022-12-07T04:06:03;100133.53;;;1.83;100.00
56604;BME280;42486;47.478;19.036;2022-12-07T04:09:07;100138.56;;;1.86;100.00
56604;BME280;42486;47.478;19.036;2022-12-07T04:12:11;100132.88;;;1.98;100.00
56604;BME280;42486;47.478;19.036;2022-12-07T04:15:15;100129.47;;;1.98;100.00
56604;BME280;42486;47.478;19.036;2022-12-07T04:18:18;100132.06;;;1.98;100.00
56604;BME280;42486;47.478;19.036;2022-12-07T04:21:24;100127.56;;;2.03;100.00
56604;BME280;42486;47.478;19.036;2022-12-07T04:24:27;100129.72;;;2.12;100.00
56604;BME280;42486;47.478;19.036;2022-12-07T04:27:33;100139.19;;;2.12;100.00
56604;BME280;42486;47.478;19.036;2022-12-07T04:30:37;100140.94;;;2.11;100.00
56604;BME280;42486;47.478;19.036;2022-12-07T04:33:42;100131.66;;;2.07;100.00
56604;BME280;42486;47.478;19.036;2022-12-07T04:36:44;100130.38;;;2.17;100.00
56604;BME280;42486;47.478;19.036;2022-12-07T04:39:50;100138.25;;;2.14;100.00
56604;BME280;42486;47.478;19.036;2022-12-07T04:42:54;100137.31;;;2.15;100.00
56604;BME280;42486;47.478;19.036;2022-12-07T04:45:59;100129.69;;;2.14;100.00
56604;BME280;42486;47.478;19.036;2022-12-07T04:49:03;100134.75;;;2.15;100.00
56604;BME280;42486;47.478;19.036;2022-12-07T04:52:08;100133.78;;;2.18;100.00
56604;BME280;42486;47.478;19.036;2022-12-07T04:55:14;100136.94;;;2.25;100.00
56604;BME280;42486;47.478;19.036;2022-12-07T04:58:27;100138.78;;;2.41;100.00
56604;BME280;42486;47.478;19.036;2022-12-07T05:01:33;100143.91;;;2.43;100.00
56604;BME280;42486;47.478;19.036;2022-12-07T05:04:36;100144.44;;;2.50;100.00
56604;BME280;42486;47.478;19.036;2022-12-07T05:07:38;100143.31;;;2.36;100.00
56604;BME280;42486;47.478;19.036;2022-12-07T05:10:40;100138.75;;;2.43;100.00
56604;BME280;42486;47.478;19.036;2022-12-07T05:13:49;100133.31;;;2.49;100.00
56604;BME280;42486;47.478;19.036;2022-12-07T05:16:55;100134.03;;;2.53;100.00
56604;BME280;42486;47.478;19.036;2022-12-07T05:19:58;100132.69;;;2.63;100.00
56604;BME280;42486;47.478;19.036;2022-12-07T05:23:01;100139.56;;;2.43;100.00
56604;BME280;42486;47.478;19.036;2022-12-07T05:26:03;100138.94;;;2.38;100.00
56604;BME280;42486;47.478;19.036;2022-12-07T05:29:06;100132.13;;;2.37;100.00
56604;BME280;42486;47.478;19.036;2022-12-07T05:32:08;100132.50;;;2.28;100.00
56604;BME280;42486;47.478;19.036;2022-12-07T05:35:10;100127.59;;;2.22;100.00
56604;BME280;42486;47.478;19.036;2022-12-07T05:38:13;100114.59;;;2.25;100.00
56604;BME280;42486;47.478;19.036;2022-12-07T05:41:16;100116.84;;;2.33;100.00
56604;BME280;42486;47.478;19.036;2022-12-07T05:44:37;100123.66;;;2.34;100.00
56604;BME280;42486;47.478;19.036;2022-12-07T05:47:39;100123.56;;;2.37;100.00
56604;BME280;42486;47.478;19.036;2022-12-07T05:50:42;100124.44;;;2.36;100.00
56604;BME280;42486;47.478;19.036;2022-12-07T05:53:44;100127.00;;;2.36;100.00
56604;BME280;42486;47.478;19.036;2022-12-07T05:56:46;100130.69;;;2.30;100.00
56604;BME280;42486;47.478;19.036;2022-12-07T05:59:48;100135.47;;;2.19;100.00
56604;BME280;42486;47.478;19.036;2022-12-07T06:02:51;100128.75;;;2.15;100.00
56604;BME280;42486;47.478;19.036;2022-12-07T06:05:53;100130.19;;;2.02;100.00
56604;BME280;42486;47.478;19.036;2022-12-07T06:08:55;100134.00;;;2.13;100.00
56604;BME280;42486;47.478;19.036;2022-12-07T06:11:57;100132.37;;;2.11;100.00
56604;BME280;42486;47.478;19.036;2022-12-07T06:15:18;100129.94;;;2.08;100.00
56604;BME280;42486;47.478;19.036;2022-12-07T06:18:20;100129.44;;;2.00;100.00
56604;BME280;42486;47.478;19.036;2022-12-07T06:21:22;100127.53;;;1.83;100.00
56604;BME280;42486;47.478;19.036;2022-12-07T06:24:24;100130.94;;;1.83;100.00
56604;BME280;42486;47.478;19.036;2022-12-07T06:27:26;100135.00;;;1.89;100.00
56604;BME280;42486;47.478;19.036;2022-12-07T06:30:28;100122.03;;;1.92;100.00
56604;BME280;42486;47.478;19.036;2022-12-07T06:33:30;100139.53;;;2.04;100.00
56604;BME280;42486;47.478;19.036;2022-12-07T06:36:33;100133.66;;;2.01;100.00
56604;BME280;42486;47.478;19.036;2022-12-07T06:39:35;100130.00;;;2.06;100.00
56604;BME280;42486;47.478;19.036;2022-12-07T06:42:37;100137.00;;;2.23;100.00
56604;BME280;42486;47.478;19.036;2022-12-07T06:45:40;100144.50;;;2.29;100.00
56604;BME280;42486;47.478;19.036;2022-12-07T06:48:43;100143.94;;;2.41;100.00
56604;BME280;42486;47.478;19.036;2022-12-07T06:51:45;100146.16;;;2.51;100.00
56604;BME280;42486;47.478;19.036;2022-12-07T06:54:47;100148.16;;;2.63;100.00
56604;BME280;42486;47.478;19.036;2022-12-07T06:57:49;100141.78;;;2.72;100.00
56604;BME280;42486;47.478;19.036;2022-12-07T07:00:51;100145.63;;;2.82;100.00
56604;BME280;42486;47.478;19.036;2022-12-07T07:03:53;100152.47;;;2.83;100.00
56604;BME280;42486;47.478;19.036;2022-12-07T07:06:55;100148.31;;;2.79;100.00
56604;BME280;42486;47.478;19.036;2022-12-07T07:10:01;100153.44;;;2.80;100.00
56604;BME280;42486;47.478;19.036;2022-12-07T07:13:03;100153.44;;;2.80;100.00
56604;BME280;42486;47.478;19.036;2022-12-07T07:16:06;100154.53;;;2.75;100.00
56604;BME280;42486;47.478;19.036;2022-12-07T07:19:09;100152.75;;;2.77;100.00
56604;BME280;42486;47.478;19.036;2022-12-07T07:22:11;100149.44;;;2.73;100.00
56604;BME280;42486;47.478;19.036;2022-12-07T07:25:13;100143.16;;;2.79;100.00
56604;BME280;42486;47.478;19.036;2022-12-07T07:28:17;100146.66;;;2.78;100.00
56604;BME280;42486;47.478;19.036;2022-12-07T07:31:19;100153.44;;;2.80;100.00
56604;BME280;42486;47.478;19.036;2022-12-07T07:34:22;100158.59;;;2.80;100.00
56604;BME280;42486;47.478;19.036;2022-12-07T07:37:24;100161.19;;;2.99;100.00
56604;BME280;42486;47.478;19.036;2022-12-07T07:40:27;100159.75;;;3.11;100.00
56604;BME280;42486;47.478;19.036;2022-12-07T07:43:31;100150.56;;;3.05;100.00
56604;BME280;42486;47.478;19.036;2022-12-07T07:46:34;100146.53;;;3.00;100.00
56604;BME280;42486;47.478;19.036;2022-12-07T07:49:36;100149.72;;;3.05;100.00
56604;BME280;42486;47.478;19.036;2022-12-07T07:52:45;100151.41;;;3.25;100.00
56604;BME280;42486;47.478;19.036;2022-12-07T07:55:51;100155.94;;;3.20;100.00
56604;BME280;42486;47.478;19.036;2022-12-07T07:58:54;100158.66;;;3.36;100.00
56604;BME280;42486;47.478;19.036;2022-12-07T08:01:56;100152.16;;;3.46;100.00
56604;BME280;42486;47.478;19.036;2022-12-07T08:04:59;100157.84;;;3.52;100.00
56604;BME280;42486;47.478;19.036;2022-12-07T08:08:01;100156.66;;;3.60;100.00
56604;BME280;42486;47.478;19.036;2022-12-07T08:11:05;100159.75;;;3.66;100.00
56604;BME280;42486;47.478;19.036;2022-12-07T08:14:08;100158.09;;;3.65;100.00
56604;BME280;42486;47.478;19.036;2022-12-07T08:17:11;100166.53;;;3.69;100.00
56604;BME280;42486;47.478;19.036;2022-12-07T08:20:14;100167.00;;;3.77;100.00
56604;BME280;42486;47.478;19.036;2022-12-07T08:23:17;100168.69;;;3.95;100.00
56604;BME280;42486;47.478;19.036;2022-12-07T08:26:19;100171.50;;;4.08;100.00
56604;BME280;42486;47.478;19.036;2022-12-07T08:29:22;100167.41;;;4.22;100.00
56604;BME280;42486;47.478;19.036;2022-12-07T08:32:24;100164.97;;;4.18;100.00
56604;BME280;42486;47.478;19.036;2022-12-07T08:35:27;100170.69;;;4.08;100.00
56604;BME280;42486;47.478;19.036;2022-12-07T08:38:30;100174.38;;;4.19;100.00
56604;BME280;42486;47.478;19.036;2022-12-07T08:41:33;100174.81;;;4.45;100.00
56604;BME280;42486;47.478;19.036;2022-12-07T08:44:36;100180.06;;;4.61;100.00
56604;BME280;42486;47.478;19.036;2022-12-07T08:47:50;100184.50;;;4.75;100.00
56604;BME280;42486;47.478;19.036;2022-12-07T08:50:55;100190.84;;;4.69;100.00
56604;BME280;42486;47.478;19.036;2022-12-07T08:53:58;100187.72;;;4.62;100.00
56604;BME280;42486;47.478;19.036;2022-12-07T08:57:01;100182.34;;;4.83;100.00
56604;BME280;42486;47.478;19.036;2022-12-07T09:00:04;100180.59;;;4.83;100.00
56604;BME280;42486;47.478;19.036;2022-12-07T09:03:07;100179.63;;;5.02;100.00
56604;BME280;42486;47.478;19.036;2022-12-07T09:06:09;100192.00;;;5.13;100.00
56604;BME280;42486;47.478;19.036;2022-12-07T09:09:13;100179.16;;;5.27;100.00
56604;BME280;42486;47.478;19.036;2022-12-07T09:12:16;100184.06;;;5.47;100.00
56604;BME280;42486;47.478;19.036;2022-12-07T09:15:18;100175.03;;;5.39;100.00
56604;BME280;42486;47.478;19.036;2022-12-07T09:18:22;100176.03;;;5.52;100.00
56604;BME280;42486;47.478;19.036;2022-12-07T09:21:26;100171.59;;;5.70;100.00
56604;BME280;42486;47.478;19.036;2022-12-07T09:24:29;100173.75;;;5.93;100.00
56604;BME280;42486;47.478;19.036;2022-12-07T09:27:32;100164.03;;;5.97;100.00
56604;BME280;42486;47.478;19.036;2022-12-07T09:30:34;100168.12;;;6.01;100.00
56604;BME280;42486;47.478;19.036;2022-12-07T09:33:58;100169.03;;;6.00;100.00
56604;BME280;42486;47.478;19.036;2022-12-07T09:37:04;100170.25;;;6.09;100.00
56604;BME280;42486;47.478;19.036;2022-12-07T09:40:07;100166.37;;;6.16;100.00
56604;BME280;42486;47.478;19.036;2022-12-07T09:43:13;100163.97;;;6.13;100.00
56604;BME280;42486;47.478;19.036;2022-12-07T09:46:36;100164.91;;;6.12;100.00
56604;BME280;42486;47.478;19.036;2022-12-07T09:49:46;100154.63;;;6.10;100.00
56604;BME280;42486;47.478;19.036;2022-12-07T09:52:49;100156.31;;;5.95;97.93
56604;BME280;42486;47.478;19.036;2022-12-07T09:56:11;100149.97;;;6.01;100.00
56604;BME280;42486;47.478;19.036;2022-12-07T09:59:18;100151.84;;;6.13;99.77
56604;BME280;42486;47.478;19.036;2022-12-07T10:02:43;100150.62;;;6.19;100.00
56604;BME280;42486;47.478;19.036;2022-12-07T10:05:57;100144.19;;;6.40;100.00
56604;BME280;42486;47.478;19.036;2022-12-07T10:09:02;100149.37;;;6.40;100.00
56604;BME280;42486;47.478;19.036;2022-12-07T10:12:07;100145.13;;;6.39;100.00
56604;BME280;42486;47.478;19.036;2022-12-07T10:15:13;100146.50;;;6.59;100.00
56604;BME280;42486;47.478;19.036;2022-12-07T10:18:34;100134.19;;;6.63;100.00
56604;BME280;42486;47.478;19.036;2022-12-07T10:21:40;100139.91;;;6.54;99.01
56604;BME280;42486;47.478;19.036;2022-12-07T10:25:07;100135.94;;;6.48;100.00
56604;BME280;42486;47.478;19.036;2022-12-07T10:28:15;100140.88;;;6.53;100.00
56604;BME280;42486;47.478;19.036;2022-12-07T10:31:20;100134.84;;;6.52;100.00
56604;BME280;42486;47.478;19.036;2022-12-07T10:37:43;100134.09;;;6.50;100.00
56604;BME280;42486;47.478;19.036;2022-12-07T10:40:47;100127.88;;;6.38;97.23
56604;BME280;42486;47.478;19.036;2022-12-07T10:43:51;100120.34;;;6.20;98.29
56604;BME280;42486;47.478;19.036;2022-12-07T10:56:57;100132.81;;;6.57;94.51
56604;BME280;42486;47.478;19.036;2022-12-07T11:00:00;100124.81;;;6.46;93.48
56604;BME280;42486;47.478;19.036;2022-12-07T11:03:22;100131.84;;;6.30;93.40
56604;BME280;42486;47.478;19.036;2022-12-07T11:22:41;100119.81;;;6.57;91.32
56604;BME280;42486;47.478;19.036;2022-12-07T11:26:03;100113.50;;;6.61;91.60
56604;BME280;42486;47.478;19.036;2022-12-07T11:38:50;100109.44;;;6.72;91.72
56604;BME280;42486;47.478;19.036;2022-12-07T11:42:16;100110.63;;;6.80;91.28
56604;BME280;42486;47.478;19.036;2022-12-07T11:45:26;100107.78;;;6.71;93.09
56604;BME280;42486;47.478;19.036;2022-12-07T11:48:33;100108.50;;;6.58;94.35
56604;BME280;42486;47.478;19.036;2022-12-07T11:51:38;100113.69;;;6.58;90.84
56604;BME280;42486;47.478;19.036;2022-12-07T11:54:42;100111.56;;;6.51;91.88
56604;BME280;42486;47.478;19.036;2022-12-07T11:57:48;100111.66;;;6.35;89.07
56604;BME280;42486;47.478;19.036;2022-12-07T12:00:55;100121.75;;;6.54;92.61
56604;BME280;42486;47.478;19.036;2022-12-07T12:07:15;100112.31;;;6.53;92.28
56604;BME280;42486;47.478;19.036;2022-12-07T12:10:55;100096.84;;;6.66;93.56
56604;BME280;42486;47.478;19.036;2022-12-07T12:20:41;100077.91;;;6.64;90.35
56604;BME280;42486;47.478;19.036;2022-12-07T12:23:48;100070.87;;;6.66;88.86
56604;BME280;42486;47.478;19.036;2022-12-07T12:26:59;100072.75;;;6.49;90.04
56604;BME280;42486;47.478;19.036;2022-12-07T12:30:05;100068.56;;;6.32;91.61
56604;BME280;42486;47.478;19.036;2022-12-07T12:33:25;100062.44;;;6.19;89.46
56604;BME280;42486;47.478;19.036;2022-12-07T12:40:12;100054.94;;;6.00;88.50
56604;BME280;42486;47.478;19.036;2022-12-07T12:43:38;100049.09;;;6.11;87.18
56604;BME280;42486;47.478;19.036;2022-12-07T12:46:57;100055.94;;;5.98;89.44
56604;BME280;42486;47.478;19.036;2022-12-07T12:50:40;100053.53;;;5.94;91.95
56604;BME280;42486;47.478;19.036;2022-12-07T12:53:43;100046.91;;;6.05;93.18
56604;BME280;42486;47.478;19.036;2022-12-07T13:00:16;100054.66;;;6.19;91.27
56604;BME280;42486;47.478;19.036;2022-12-07T13:03:31;100058.75;;;6.37;90.64
56604;BME280;42486;47.478;19.036;2022-12-07T13:06:37;100060.31;;;6.54;89.73
56604;BME280;42486;47.478;19.036;2022-12-07T13:09:43;100055.78;;;6.58;91.36
56604;BME280;42486;47.478;19.036;2022-12-07T13:22:53;100067.09;;;6.43;89.80
56604;BME280;42486;47.478;19.036;2022-12-07T13:26:01;100071.06;;;6.34;90.61
56604;BME280;42486;47.478;19.036;2022-12-07T13:29:14;100071.81;;;6.22;86.83
56604;BME280;42486;47.478;19.036;2022-12-07T13:32:23;100077.44;;;6.14;89.74
56604;BME280;42486;47.478;19.036;2022-12-07T13:35:33;100079.09;;;6.01;87.15
56604;BME280;42486;47.478;19.036;2022-12-07T13:38:56;100076.66;;;5.83;88.92
56604;BME280;42486;47.478;19.036;2022-12-07T13:42:06;100073.66;;;5.75;92.34
56604;BME280;42486;47.478;19.036;2022-12-07T13:48:35;100076.09;;;5.48;89.26
56604;BME280;42486;47.478;19.036;2022-12-07T13:51:55;100077.37;;;5.25;92.90
56604;BME280;42486;47.478;19.036;2022-12-07T13:55:16;100087.34;;;5.17;93.45
56604;BME280;42486;47.478;19.036;2022-12-07T13:58:59;100088.25;;;5.16;94.99
56604;BME280;42486;47.478;19.036;2022-12-07T14:05:26;100091.00;;;5.28;94.12
56604;BME280;42486;47.478;19.036;2022-12-07T14:08:31;100083.97;;;5.30;94.82
56604;BME280;42486;47.478;19.036;2022-12-07T14:11:41;100084.22;;;5.26;91.89
56604;BME280;42486;47.478;19.036;2022-12-07T14:15:15;100075.72;;;5.24;95.94
56604;BME280;42486;47.478;19.036;2022-12-07T14:18:45;100078.47;;;5.21;95.75
56604;BME280;42486;47.478;19.036;2022-12-07T14:21:48;100080.16;;;5.22;96.69
56604;BME280;42486;47.478;19.036;2022-12-07T14:28:32;100083.94;;;5.00;96.26
56604;BME280;42486;47.478;19.036;2022-12-07T14:31:37;100082.66;;;4.92;98.41
56604;BME280;42486;47.478;19.036;2022-12-07T14:35:08;100084.25;;;4.78;100.00
56604;BME280;42486;47.478;19.036;2022-12-07T14:38:23;100081.50;;;4.66;100.00
56604;BME280;42486;47.478;19.036;2022-12-07T14:41:27;100088.66;;;4.60;100.00
56604;BME280;42486;47.478;19.036;2022-12-07T14:44:53;100090.12;;;4.49;100.00
56604;BME280;42486;47.478;19.036;2022-12-07T14:48:07;100096.97;;;4.34;100.00
56604;BME280;42486;47.478;19.036;2022-12-07T14:51:45;100103.97;;;4.14;100.00
56604;BME280;42486;47.478;19.036;2022-12-07T14:55:13;100101.41;;;3.97;100.00
56604;BME280;42486;47.478;19.036;2022-12-07T14:58:17;100103.94;;;3.81;100.00
56604;BME280;42486;47.478;19.036;2022-12-07T15:01:20;100106.28;;;3.68;100.00
56604;BME280;42486;47.478;19.036;2022-12-07T15:04:22;100101.87;;;3.70;100.00
56604;BME280;42486;47.478;19.036;2022-12-07T15:07:33;100110.53;;;3.69;100.00
56604;BME280;42486;47.478;19.036;2022-12-07T15:10:37;100111.00;;;3.60;100.00
56604;BME280;42486;47.478;19.036;2022-12-07T15:13:46;100104.84;;;3.63;100.00
56604;BME280;42486;47.478;19.036;2022-12-07T15:17:09;100110.31;;;3.57;100.00
56604;BME280;42486;47.478;19.036;2022-12-07T15:20:29;100116.13;;;3.43;100.00
56604;BME280;42486;47.478;19.036;2022-12-07T15:23:37;100118.37;;;3.31;100.00
56604;BME280;42486;47.478;19.036;2022-12-07T15:26:59;100118.06;;;3.20;100.00
56604;BME280;42486;47.478;19.036;2022-12-07T15:30:04;100114.44;;;3.05;100.00
56604;BME280;42486;47.478;19.036;2022-12-07T15:36:50;100118.84;;;2.84;100.00
56604;BME280;42486;47.478;19.036;2022-12-07T15:40:08;100128.81;;;2.73;100.00
56604;BME280;42486;47.478;19.036;2022-12-07T15:43:14;100124.31;;;2.58;100.00
56604;BME280;42486;47.478;19.036;2022-12-07T15:46:39;100134.59;;;2.59;100.00
56604;BME280;42486;47.478;19.036;2022-12-07T15:50:00;100138.75;;;2.43;100.00
56604;BME280;42486;47.478;19.036;2022-12-07T15:53:37;100140.22;;;2.28;100.00
56604;BME280;42486;47.478;19.036;2022-12-07T15:56:42;100149.88;;;2.23;100.00
56604;BME280;42486;47.478;19.036;2022-12-07T16:00:08;100136.44;;;2.16;100.00
56604;BME280;42486;47.478;19.036;2022-12-07T16:03:17;100142.88;;;2.06;100.00
56604;BME280;42486;47.478;19.036;2022-12-07T16:06:27;100134.56;;;2.20;100.00
56604;BME280;42486;47.478;19.036;2022-12-07T16:09:30;100139.19;;;2.12;100.00
56604;BME280;42486;47.478;19.036;2022-12-07T16:12:34;100147.56;;;1.96;100.00
56604;BME280;42486;47.478;19.036;2022-12-07T16:15:38;100136.09;;;1.83;100.00
56604;BME280;42486;47.478;19.036;2022-12-07T16:18:42;100127.94;;;1.73;100.00
56604;BME280;42486;47.478;19.036;2022-12-07T16:21:48;100129.13;;;1.65;100.00
56604;BME280;42486;47.478;19.036;2022-12-07T16:24:57;100130.06;;;1.62;100.00
56604;BME280;42486;47.478;19.036;2022-12-07T16:27:59;100128.53;;;1.58;100.00
56604;BME280;42486;47.478;19.036;2022-12-07T16:31:05;100132.47;;;1.67;100.00
56604;BME280;42486;47.478;19.036;2022-12-07T16:34:20;100133.50;;;1.63;100.00
56604;BME280;42486;47.478;19.036;2022-12-07T16:37:31;100141.84;;;1.47;100.00
56604;BME280;42486;47.478;19.036;2022-12-07T16:40:37;100147.69;;;1.51;100.00
56604;BME280;42486;47.478;19.036;2022-12-07T16:43:39;100151.91;;;1.31;100.00
56604;BME280;42486;47.478;19.036;2022-12-07T16:46:45;100139.94;;;1.30;100.00
56604;BME280;42486;47.478;19.036;2022-12-07T16:49:50;100150.16;;;1.32;100.00
56604;BME280;42486;47.478;19.036;2022-12-07T16:52:55;100148.13;;;1.18;100.00
56604;BME280;42486;47.478;19.036;2022-12-07T16:55:57;100140.81;;;1.07;100.00
56604;BME280;42486;47.478;19.036;2022-12-07T16:59:00;100150.25;;;1.07;100.00
56604;BME280;42486;47.478;19.036;2022-12-07T17:02:06;100148.84;;;0.98;100.00
56604;BME280;42486;47.478;19.036;2022-12-07T17:05:25;100150.72;;;0.95;100.00
56604;BME280;42486;47.478;19.036;2022-12-07T17:08:30;100156.66;;;0.97;100.00
56604;BME280;42486;47.478;19.036;2022-12-07T17:11:34;100157.03;;;0.86;100.00
56604;BME280;42486;47.478;19.036;2022-12-07T17:14:37;100152.87;;;0.82;100.00
56604;BME280;42486;47.478;19.036;2022-12-07T17:17:58;100157.16;;;0.83;100.00
56604;BME280;42486;47.478;19.036;2022-12-07T17:21:05;100154.34;;;0.89;100.00
56604;BME280;42486;47.478;19.036;2022-12-07T17:24:15;100164.12;;;0.79;100.00
56604;BME280;42486;47.478;19.036;2022-12-07T17:27:21;100168.72;;;0.71;100.00
56604;BME280;42486;47.478;19.036;2022-12-07T17:30:24;100160.31;;;0.66;100.00
56604;BME280;42486;47.478;19.036;2022-12-07T17:33:27;100156.66;;;0.73;100.00
56604;BME280;42486;47.478;19.036;2022-12-07T17:36:31;100148.34;;;0.67;100.00
56604;BME280;42486;47.478;19.036;2022-12-07T17:39:35;100150.13;;;0.64;100.00
56604;BME280;42486;47.478;19.036;2022-12-07T17:42:40;100153.78;;;0.57;100.00
56604;BME280;42486;47.478;19.036;2022-12-07T17:45:50;100154.97;;;0.49;100.00
56604;BME280;42486;47.478;19.036;2022-12-07T17:48:59;100160.13;;;0.47;100.00
56604;BME280;42486;47.478;19.036;2022-12-07T17:52:04;100162.81;;;0.44;100.00
56604;BME280;42486;47.478;19.036;2022-12-07T17:55:29;100164.56;;;0.43;100.00